Prairie Du Chien, WI

1:18 PM CST on February 23, 2018 (GMT -0600)
Prairie Du Chien Municipal

Weather History for KPDC - December, 2014

Change the Weather History Date:

Sunday, December 21, 2014

  Actual Average Record
Temperature  
Mean Temperature 35 °F -  
Max Temperature 39 °F 29 °F 50 °F (1967)
Min Temperature 31 °F 11 °F -21 °F (1963)
Degree Days  
Heating Degree Days 30    
Moisture  
Dew Point 32 °F    
Average Humidity 87    
Maximum Humidity 99    
Minimum Humidity 77    
Precipitation  
Precipitation 0.00 in - - ()
Sea Level Pressure  
Sea Level Pressure 29.99 in    
Wind  
Wind Speed 6 mph (SE)    
Max Wind Speed 14 mph    
Max Gust Speed 21 mph    
Visibility 5 miles    
Events      
Averages and records for this station are not official NWS values.
T = Trace of Precipitation, MM = Missing Value Source: NWS Daily Summary

Daily Weather History Graph

Daily Weather History Graph

Search for Another Location

Airport or City:

Trip Planner

Search our weather history database for the weather conditions in past years. The results will help you decide how hot, cold, wet, or windy it might be!

Date:

Astronomy

Dec. 21, 2014 Rise Set
Actual Time 7:32 AM CST 4:32 PM CST
Civil Twilight 7:00 AM CST 5:05 PM CST
Nautical Twilight 6:24 AM CST 5:41 PM CST
Astronomical Twilight 5:49 AM CST 6:15 PM CST
Moon 6:47 AM CST (12/21) 4:41 PM CST (12/21)
Length of Visible Light 10h 05m
Length of Day
9h 00m
Waning Crescent, 0% of the Moon is Illuminated
Dec 21
Waning Crescent
Dec 21
New
Dec 28
First Quarter
Jan 4
Full
Jan 13
Last Quarter

Hourly Weather History & Observations

Time (CST) Temp. Windchill Dew Point Humidity Pressure Visibility Wind Dir Wind Speed Gust Speed Precip Events Conditions
12:15 AM 31.8 °F 27.3 °F 29.7 °F 92% 30.16 in 2.5 mi ESE 4.6 mph - N/A   Overcast
12:35 AM 31.8 °F 26.2 °F 29.8 °F 92% 30.14 in 2.5 mi ESE 5.8 mph - N/A   Overcast
12:55 AM 32.0 °F 27.5 °F 30.0 °F 92% 30.14 in 2.5 mi East 4.6 mph - N/A   Overcast
1:15 AM 32.0 °F 28.7 °F 30.2 °F 93% 30.14 in 2.0 mi ESE 3.5 mph - N/A   Overcast
1:35 AM 32.0 °F 27.5 °F 30.2 °F 93% 30.14 in 2.5 mi ESE 4.6 mph - N/A   Overcast
1:55 AM 32.0 °F 26.4 °F 30.2 °F 93% 30.14 in 2.5 mi ESE 5.8 mph - N/A   Overcast
2:15 AM 32.0 °F 27.5 °F 30.2 °F 93% 30.14 in 2.0 mi ESE 4.6 mph - N/A   Overcast
2:35 AM 32.0 °F 27.5 °F 30.7 °F 95% 30.13 in 2.0 mi ESE 4.6 mph - N/A   Overcast
2:55 AM 32.0 °F 27.5 °F 30.9 °F 96% 30.13 in 1.8 mi ESE 4.6 mph - N/A   Overcast
3:15 AM 32.0 °F 25.6 °F 31.1 °F 96% 30.12 in 1.2 mi East 6.9 mph - N/A   Overcast
3:35 AM 32.0 °F 26.4 °F 31.1 °F 96% 30.10 in 1.0 mi ESE 5.8 mph - N/A   Overcast
3:55 AM 32.0 °F 27.5 °F 31.5 °F 98% 30.10 in 1.2 mi ESE 4.6 mph - N/A   Overcast
4:15 AM 32.2 °F 25.8 °F 31.8 °F 99% 30.09 in 2.0 mi ESE 6.9 mph - N/A   Overcast
4:35 AM 32.4 °F 27.9 °F 31.8 °F 98% 30.09 in 2.5 mi ESE 4.6 mph - N/A   Overcast
4:55 AM 32.5 °F 29.3 °F 31.6 °F 96% 30.08 in 3.0 mi ESE 3.5 mph - N/A   Overcast
5:15 AM 32.9 °F 27.5 °F 31.6 °F 95% 30.08 in 3.0 mi ESE 5.8 mph - N/A   Overcast
5:35 AM 32.9 °F 28.5 °F 31.8 °F 96% 30.07 in 3.0 mi SE 4.6 mph - N/A   Overcast
5:55 AM 32.9 °F 27.5 °F 32.0 °F 96% 30.07 in 2.5 mi ESE 5.8 mph - N/A   Overcast
6:15 AM 33.1 °F 26.1 °F 32.0 °F 96% 30.06 in 2.5 mi ESE 8.1 mph - N/A   Overcast
6:35 AM 33.3 °F 28.9 °F 32.0 °F 95% 30.06 in 2.5 mi SE 4.6 mph - N/A   Overcast
6:55 AM 33.8 °F 29.6 °F 32.0 °F 93% 30.06 in 2.5 mi ESE 4.6 mph - N/A   Overcast
7:15 AM 34.0 °F 31.0 °F 32.2 °F 93% 30.06 in 3.0 mi ESE 3.5 mph - N/A   Overcast
7:35 AM 34.7 °F 30.6 °F 32.5 °F 92% 30.05 in 3.0 mi ESE 4.6 mph - N/A   Overcast
7:55 AM 35.2 °F 28.8 °F 32.5 °F 90% 30.04 in 4.0 mi SE 8.1 mph - N/A   Overcast
8:15 AM 35.6 °F 29.2 °F 32.9 °F 90% 30.04 in 4.0 mi SE 8.1 mph 16.1 mph N/A   Overcast
8:35 AM 35.8 °F 30.9 °F 32.9 °F 89% 30.04 in 4.0 mi SE 5.8 mph - N/A   Overcast
8:55 AM 36.0 °F 29.6 °F 32.9 °F 89% 30.04 in 4.0 mi SE 8.1 mph - N/A   Overcast
9:15 AM 36.1 °F 31.4 °F 32.9 °F 88% 30.04 in 3.0 mi SE 5.8 mph - N/A   Overcast
9:35 AM 36.5 °F 29.2 °F 33.1 °F 87% 30.03 in 3.0 mi SE 10.4 mph 17.3 mph N/A   Overcast
9:55 AM 36.9 °F 32.2 °F 33.3 °F 87% 30.03 in 3.0 mi SSE 5.8 mph 17.3 mph N/A   Overcast
10:15 AM 37.0 °F 31.6 °F 33.3 °F 86% 30.02 in 4.0 mi SE 6.9 mph - N/A   Overcast
10:35 AM 37.6 °F 31.6 °F 33.3 °F 84% 30.02 in 4.0 mi SE 8.1 mph - N/A   Haze
10:55 AM 37.9 °F 31.5 °F 33.4 °F 84% 30.01 in 5.0 mi SE 9.2 mph 16.1 mph N/A   Overcast
11:15 AM 38.3 °F 32.5 °F 33.3 °F 82% 30.00 in 5.0 mi SE 8.1 mph 16.1 mph N/A   Haze
11:35 AM 38.3 °F 32.5 °F 33.3 °F 82% 29.99 in 5.0 mi SE 8.1 mph - N/A   Haze
11:55 AM 38.5 °F 32.7 °F 33.1 °F 81% 29.97 in 7.0 mi SE 8.1 mph 17.3 mph N/A   Overcast
12:15 PM 39.0 °F 34.0 °F 32.7 °F 78% 29.96 in 7.0 mi SSE 6.9 mph - N/A   Overcast
12:35 PM 39.2 °F 35.9 °F 32.5 °F 77% 29.96 in 7.0 mi South 4.6 mph - N/A   Overcast
12:55 PM 39.2 °F 33.0 °F 32.7 °F 78% 29.94 in 7.0 mi SE 9.2 mph - N/A   Overcast
1:15 PM 39.2 °F 32.5 °F 32.9 °F 78% 29.93 in 7.0 mi SE 10.4 mph 16.1 mph N/A   Overcast
1:35 PM 39.2 °F 33.6 °F 32.9 °F 78% 29.92 in 7.0 mi SE 8.1 mph 17.3 mph N/A   Overcast
1:55 PM 39.0 °F 32.8 °F 32.9 °F 79% 29.91 in 7.0 mi SSE 9.2 mph 17.3 mph N/A   Overcast
2:15 PM 38.8 °F 31.6 °F 33.1 °F 80% 29.91 in 7.0 mi SE 11.5 mph 18.4 mph N/A   Overcast
2:35 PM 38.7 °F 33.6 °F 33.3 °F 81% 29.91 in 7.0 mi SSE 6.9 mph - N/A   Overcast
2:55 PM 38.5 °F 32.1 °F 33.4 °F 82% 29.91 in 5.0 mi SE 9.2 mph 16.1 mph N/A   Haze
3:15 PM 38.5 °F 32.7 °F 33.4 °F 82% 29.90 in 7.0 mi SE 8.1 mph 20.7 mph N/A   Overcast
3:35 PM 38.5 °F 32.1 °F 33.3 °F 81% 29.90 in 7.0 mi SE 9.2 mph - N/A   Overcast
3:55 PM 38.7 °F 31.4 °F 33.3 °F 81% 29.90 in 10.0 mi SE 11.5 mph 16.1 mph N/A   Overcast
4:15 PM 39.2 °F 33.6 °F 33.4 °F 80% 29.90 in 10.0 mi SE 8.1 mph - N/A   Overcast
4:35 PM 38.7 °F 33.6 °F 33.3 °F 81% 29.90 in 10.0 mi SE 6.9 mph - N/A   Overcast
4:55 PM 38.7 °F 35.2 °F 33.3 °F 81% 29.90 in 10.0 mi ESE 4.6 mph - N/A   Overcast
5:15 PM 38.7 °F 34.3 °F 33.3 °F 81% 29.90 in 10.0 mi SE 5.8 mph - N/A   Overcast
5:35 PM 38.7 °F 32.9 °F 33.1 °F 80% 29.91 in 10.0 mi SE 8.1 mph - N/A   Overcast
5:55 PM 38.7 °F 33.6 °F 33.1 °F 80% 29.91 in 10.0 mi SE 6.9 mph - N/A   Overcast
6:15 PM 38.5 °F 34.1 °F 33.1 °F 81% 29.91 in 7.0 mi SE 5.8 mph - N/A   Overcast
6:35 PM 38.3 °F 33.9 °F 33.3 °F 82% 29.91 in 5.0 mi SE 5.8 mph - N/A   Haze
6:55 PM 38.1 °F 32.9 °F 33.1 °F 82% 29.90 in 7.0 mi SE 6.9 mph - N/A   Overcast
7:15 PM 37.8 °F 33.3 °F 32.9 °F 83% 29.90 in 7.0 mi ESE 5.8 mph - N/A   Overcast
7:35 PM 37.4 °F 32.8 °F 32.9 °F 84% 29.90 in 7.0 mi ESE 5.8 mph - N/A   Overcast
7:55 PM 37.2 °F 31.9 °F 32.9 °F 84% 29.89 in 7.0 mi ESE 6.9 mph - N/A   Overcast
8:15 PM 37.0 °F 29.8 °F 32.9 °F 85% 29.89 in 5.0 mi ESE 10.4 mph - N/A   Overcast
8:35 PM 36.7 °F 29.4 °F 32.5 °F 85% 29.89 in 7.0 mi ESE 10.4 mph - N/A   Overcast
8:55 PM 36.7 °F 30.5 °F 32.2 °F 84% 29.89 in 7.0 mi SE 8.1 mph - N/A   Overcast
9:15 PM 36.9 °F 28.2 °F 32.0 °F 83% 29.88 in 7.0 mi ESE 13.8 mph 17.3 mph N/A   Overcast
9:35 PM 36.7 °F 30.5 °F 32.0 °F 83% 29.88 in 7.0 mi SE 8.1 mph - N/A   Overcast
9:55 PM 36.7 °F 29.4 °F 32.0 °F 83% 29.88 in 7.0 mi SE 10.4 mph - N/A   Overcast
10:15 PM 36.7 °F 29.4 °F 31.8 °F 83% 29.88 in 7.0 mi SE 10.4 mph - N/A   Overcast
10:35 PM 36.7 °F 30.5 °F 31.8 °F 83% 29.87 in 7.0 mi SE 8.1 mph - N/A   Overcast
10:55 PM 36.7 °F 29.9 °F 31.8 °F 83% 29.87 in 7.0 mi ESE 9.2 mph 16.1 mph N/A   Overcast
11:15 PM 36.7 °F 31.2 °F 31.8 °F 83% 29.87 in 7.0 mi SE 6.9 mph - N/A   Overcast
11:35 PM 36.5 °F 30.3 °F 31.6 °F 83% 29.87 in 7.0 mi SE 8.1 mph - N/A   Overcast
11:55 PM 36.5 °F 29.7 °F 31.6 °F 83% 29.87 in 7.0 mi SE 9.2 mph - N/A   Overcast